sensor_id;sensor_type;location;lat;lon;timestamp;pressure;altitude;pressure_sealevel;temperature;humidity
69737;BME280;64476;55.004;73.342;2023-09-19T00:01:42;100935.53;;;9.02;62.91
69737;BME280;64476;55.004;73.342;2023-09-19T00:04:46;100933.88;;;9.01;63.20
69737;BME280;64476;55.004;73.342;2023-09-19T00:07:56;100936.66;;;9.00;63.12
69737;BME280;64476;55.004;73.342;2023-09-19T00:10:59;100938.56;;;8.98;63.06
69737;BME280;64476;55.004;73.342;2023-09-19T00:14:07;100938.72;;;8.96;62.98
69737;BME280;64476;55.004;73.342;2023-09-19T00:17:09;100928.50;;;8.93;63.34
69737;BME280;64476;55.004;73.342;2023-09-19T00:20:11;100925.34;;;8.90;63.42
69737;BME280;64476;55.004;73.342;2023-09-19T00:23:14;100926.31;;;8.89;63.28
69737;BME280;64476;55.004;73.342;2023-09-19T00:26:15;100924.09;;;8.84;63.38
69737;BME280;64476;55.004;73.342;2023-09-19T00:29:22;100924.53;;;8.79;63.58
69737;BME280;64476;55.004;73.342;2023-09-19T00:32:57;100924.38;;;8.81;63.33
69737;BME280;64476;55.004;73.342;2023-09-19T00:35:58;100928.13;;;8.78;63.57
69737;BME280;64476;55.004;73.342;2023-09-19T00:39:37;100933.34;;;8.78;63.32
69737;BME280;64476;55.004;73.342;2023-09-19T00:42:39;100934.31;;;8.77;63.23
69737;BME280;64476;55.004;73.342;2023-09-19T00:45:42;100926.44;;;8.77;63.50
69737;BME280;64476;55.004;73.342;2023-09-19T00:52:18;100929.06;;;8.77;63.48
69737;BME280;64476;55.004;73.342;2023-09-19T00:55:24;100938.72;;;8.77;63.87
69737;BME280;64476;55.004;73.342;2023-09-19T00:58:58;100935.97;;;8.78;63.53
69737;BME280;64476;55.004;73.342;2023-09-19T01:01:59;100931.69;;;8.77;63.28
69737;BME280;64476;55.004;73.342;2023-09-19T01:05:01;100931.69;;;8.77;63.89
69737;BME280;64476;55.004;73.342;2023-09-19T01:08:05;100939.41;;;8.79;63.95
69737;BME280;64476;55.004;73.342;2023-09-19T01:17:43;100936.09;;;8.87;63.67
69737;BME280;64476;55.004;73.342;2023-09-19T01:30:33;100942.03;;;8.89;64.98
69737;BME280;64476;55.004;73.342;2023-09-19T01:36:43;100935.00;;;8.89;65.05
69737;BME280;64476;55.004;73.342;2023-09-19T01:39:48;100935.00;;;8.89;64.82
69737;BME280;64476;55.004;73.342;2023-09-19T01:45:56;100930.00;;;8.96;64.82
69737;BME280;64476;55.004;73.342;2023-09-19T01:55:46;100930.38;;;9.11;65.03
69737;BME280;64476;55.004;73.342;2023-09-19T01:58:56;100928.19;;;9.16;65.22
69737;BME280;64476;55.004;73.342;2023-09-19T02:02:01;100922.50;;;9.20;64.85
69737;BME280;64476;55.004;73.342;2023-09-19T02:05:03;100929.16;;;9.24;64.80
69737;BME280;64476;55.004;73.342;2023-09-19T02:08:05;100934.94;;;9.28;64.77
69737;BME280;64476;55.004;73.342;2023-09-19T02:11:06;100932.88;;;9.32;64.94
69737;BME280;64476;55.004;73.342;2023-09-19T02:14:08;100923.91;;;9.34;64.51
69737;BME280;64476;55.004;73.342;2023-09-19T02:17:10;100927.06;;;9.38;64.78
69737;BME280;64476;55.004;73.342;2023-09-19T02:20:13;100931.03;;;9.42;64.25
69737;BME280;64476;55.004;73.342;2023-09-19T02:23:18;100927.16;;;9.46;64.19
69737;BME280;64476;55.004;73.342;2023-09-19T02:26:28;100925.06;;;9.49;64.27
69737;BME280;64476;55.004;73.342;2023-09-19T02:30:07;100927.25;;;9.54;63.97
69737;BME280;64476;55.004;73.342;2023-09-19T02:33:08;100921.44;;;9.60;64.27
69737;BME280;64476;55.004;73.342;2023-09-19T02:36:09;100926.53;;;9.62;64.43
69737;BME280;64476;55.004;73.342;2023-09-19T02:39:11;100926.94;;;9.67;64.13
69737;BME280;64476;55.004;73.342;2023-09-19T02:42:12;100924.69;;;9.72;63.75
69737;BME280;64476;55.004;73.342;2023-09-19T02:45:14;100925.94;;;9.77;63.76
69737;BME280;64476;55.004;73.342;2023-09-19T02:48:16;100923.53;;;9.84;63.68
69737;BME280;64476;55.004;73.342;2023-09-19T02:51:17;100925.13;;;9.95;63.49
69737;BME280;64476;55.004;73.342;2023-09-19T02:54:19;100923.00;;;10.08;63.31
69737;BME280;64476;55.004;73.342;2023-09-19T02:57:20;100923.00;;;10.26;63.03
69737;BME280;64476;55.004;73.342;2023-09-19T03:00:22;100927.28;;;10.45;62.52
69737;BME280;64476;55.004;73.342;2023-09-19T03:03:24;100925.69;;;10.62;62.36
69737;BME280;64476;55.004;73.342;2023-09-19T03:06:25;100930.25;;;10.78;62.20
69737;BME280;64476;55.004;73.342;2023-09-19T03:09:27;100925.91;;;10.94;61.53
69737;BME280;64476;55.004;73.342;2023-09-19T03:12:28;100927.16;;;11.08;61.54
69737;BME280;64476;55.004;73.342;2023-09-19T03:15:30;100923.97;;;11.22;60.89
69737;BME280;64476;55.004;73.342;2023-09-19T03:18:33;100926.63;;;11.31;60.39
69737;BME280;64476;55.004;73.342;2023-09-19T03:21:35;100930.00;;;11.41;60.17
69737;BME280;64476;55.004;73.342;2023-09-19T03:24:37;100934.81;;;11.54;59.48
69737;BME280;64476;55.004;73.342;2023-09-19T03:27:41;100940.19;;;11.70;59.40
69737;BME280;64476;55.004;73.342;2023-09-19T03:30:44;100932.34;;;11.86;58.75
69737;BME280;64476;55.004;73.342;2023-09-19T03:33:45;100927.16;;;12.03;58.75
69737;BME280;64476;55.004;73.342;2023-09-19T03:36:47;100929.16;;;12.17;58.47
69737;BME280;64476;55.004;73.342;2023-09-19T03:39:48;100931.81;;;12.25;58.33
69737;BME280;64476;55.004;73.342;2023-09-19T03:42:50;100941.84;;;12.30;58.36
69737;BME280;64476;55.004;73.342;2023-09-19T03:45:52;100943.03;;;12.35;58.42
69737;BME280;64476;55.004;73.342;2023-09-19T03:48:55;100940.91;;;12.39;58.36
69737;BME280;64476;55.004;73.342;2023-09-19T03:51:57;100940.72;;;12.40;58.17
69737;BME280;64476;55.004;73.342;2023-09-19T03:54:59;100940.56;;;12.42;57.45
69737;BME280;64476;55.004;73.342;2023-09-19T03:58:01;100940.22;;;12.45;57.96
69737;BME280;64476;55.004;73.342;2023-09-19T04:01:03;100937.63;;;12.53;57.85
69737;BME280;64476;55.004;73.342;2023-09-19T04:04:05;100939.09;;;12.64;57.66
69737;BME280;64476;55.004;73.342;2023-09-19T04:07:11;100935.34;;;12.75;57.21
69737;BME280;64476;55.004;73.342;2023-09-19T04:10:13;100926.44;;;12.84;57.38
69737;BME280;64476;55.004;73.342;2023-09-19T04:13:25;100930.38;;;12.96;57.25
69737;BME280;64476;55.004;73.342;2023-09-19T04:16:26;100929.41;;;13.05;57.19
69737;BME280;64476;55.004;73.342;2023-09-19T04:19:28;100930.50;;;13.19;57.16
69737;BME280;64476;55.004;73.342;2023-09-19T04:22:30;100928.19;;;13.32;57.23
69737;BME280;64476;55.004;73.342;2023-09-19T04:25:31;100922.00;;;13.48;57.05
69737;BME280;64476;55.004;73.342;2023-09-19T04:28:32;100923.59;;;13.66;56.46
69737;BME280;64476;55.004;73.342;2023-09-19T04:31:35;100924.41;;;13.82;56.04
69737;BME280;64476;55.004;73.342;2023-09-19T04:34:38;100918.38;;;13.97;55.87
69737;BME280;64476;55.004;73.342;2023-09-19T04:37:40;100917.13;;;14.16;55.13
69737;BME280;64476;55.004;73.342;2023-09-19T04:40:42;100919.47;;;14.33;54.72
69737;BME280;64476;55.004;73.342;2023-09-19T04:43:44;100918.53;;;14.49;54.34
69737;BME280;64476;55.004;73.342;2023-09-19T04:46:46;100914.31;;;14.63;54.17
69737;BME280;64476;55.004;73.342;2023-09-19T04:49:47;100917.03;;;14.78;53.87
69737;BME280;64476;55.004;73.342;2023-09-19T04:52:49;100919.22;;;14.89;53.41
69737;BME280;64476;55.004;73.342;2023-09-19T04:55:51;100922.06;;;15.02;53.10
69737;BME280;64476;55.004;73.342;2023-09-19T04:58:56;100917.34;;;15.13;52.67
69737;BME280;64476;55.004;73.342;2023-09-19T05:01:59;100918.72;;;15.23;52.00
69737;BME280;64476;55.004;73.342;2023-09-19T05:05:00;100910.50;;;15.33;51.96
69737;BME280;64476;55.004;73.342;2023-09-19T05:08:02;100906.50;;;15.37;51.52
69737;BME280;64476;55.004;73.342;2023-09-19T05:11:06;100902.94;;;15.45;51.74
69737;BME280;64476;55.004;73.342;2023-09-19T05:14:07;100900.63;;;15.57;51.14
69737;BME280;64476;55.004;73.342;2023-09-19T05:17:08;100896.34;;;15.70;50.52
69737;BME280;64476;55.004;73.342;2023-09-19T05:20:10;100898.69;;;15.80;50.34
69737;BME280;64476;55.004;73.342;2023-09-19T05:23:17;100893.56;;;15.93;50.19
69737;BME280;64476;55.004;73.342;2023-09-19T05:26:22;100895.94;;;16.10;49.88
69737;BME280;64476;55.004;73.342;2023-09-19T05:29:23;100898.09;;;16.21;49.85
69737;BME280;64476;55.004;73.342;2023-09-19T05:32:25;100900.09;;;16.34;49.38
69737;BME280;64476;55.004;73.342;2023-09-19T05:35:26;100890.03;;;16.50;49.14
69737;BME280;64476;55.004;73.342;2023-09-19T05:38:28;100891.63;;;16.66;48.58
69737;BME280;64476;55.004;73.342;2023-09-19T05:41:29;100891.31;;;16.83;47.96
69737;BME280;64476;55.004;73.342;2023-09-19T05:44:31;100889.59;;;16.96;48.09
69737;BME280;64476;55.004;73.342;2023-09-19T05:47:40;100883.34;;;17.11;47.65
69737;BME280;64476;55.004;73.342;2023-09-19T05:50:44;100883.63;;;17.22;46.99
69737;BME280;64476;55.004;73.342;2023-09-19T05:53:49;100877.78;;;17.34;47.08
69737;BME280;64476;55.004;73.342;2023-09-19T05:56:57;100881.13;;;17.49;47.32
69737;BME280;64476;55.004;73.342;2023-09-19T05:59:59;100876.69;;;17.63;46.66
69737;BME280;64476;55.004;73.342;2023-09-19T06:03:01;100869.75;;;17.75;46.12
69737;BME280;64476;55.004;73.342;2023-09-19T06:06:03;100867.16;;;17.88;46.29
69737;BME280;64476;55.004;73.342;2023-09-19T06:09:05;100870.44;;;17.97;45.87
69737;BME280;64476;55.004;73.342;2023-09-19T06:12:07;100858.19;;;18.03;44.78
69737;BME280;64476;55.004;73.342;2023-09-19T06:18:45;100866.22;;;18.29;44.64
69737;BME280;64476;55.004;73.342;2023-09-19T06:21:48;100861.75;;;18.43;45.20
69737;BME280;64476;55.004;73.342;2023-09-19T06:25:01;100863.16;;;18.52;44.17
69737;BME280;64476;55.004;73.342;2023-09-19T06:28:07;100864.19;;;18.64;43.92
69737;BME280;64476;55.004;73.342;2023-09-19T06:31:15;100866.00;;;18.77;42.34
69737;BME280;64476;55.004;73.342;2023-09-19T06:34:22;100861.91;;;18.81;42.54
69737;BME280;64476;55.004;73.342;2023-09-19T06:37:27;100857.16;;;18.90;41.49
69737;BME280;64476;55.004;73.342;2023-09-19T06:40:30;100850.22;;;19.09;41.84
69737;BME280;64476;55.004;73.342;2023-09-19T06:43:32;100853.03;;;19.27;41.17
69737;BME280;64476;55.004;73.342;2023-09-19T06:46:34;100851.72;;;19.43;39.90
69737;BME280;64476;55.004;73.342;2023-09-19T06:50:09;100850.38;;;19.72;40.45
69737;BME280;64476;55.004;73.342;2023-09-19T06:53:14;100844.81;;;19.80;40.07
69737;BME280;64476;55.004;73.342;2023-09-19T06:56:15;100842.09;;;19.87;39.23
69737;BME280;64476;55.004;73.342;2023-09-19T06:59:18;100839.59;;;19.92;39.98
69737;BME280;64476;55.004;73.342;2023-09-19T07:03:01;100836.63;;;20.07;36.32
69737;BME280;64476;55.004;73.342;2023-09-19T07:06:08;100831.47;;;20.12;38.96
69737;BME280;64476;55.004;73.342;2023-09-19T07:09:14;100822.38;;;20.20;38.79
69737;BME280;64476;55.004;73.342;2023-09-19T07:12:15;100818.78;;;20.32;38.17
69737;BME280;64476;55.004;73.342;2023-09-19T07:15:23;100812.75;;;20.44;37.04
69737;BME280;64476;55.004;73.342;2023-09-19T07:18:26;100809.16;;;20.56;36.81
69737;BME280;64476;55.004;73.342;2023-09-19T07:21:27;100797.13;;;20.66;36.96
69737;BME280;64476;55.004;73.342;2023-09-19T07:24:29;100801.97;;;20.75;37.86
69737;BME280;64476;55.004;73.342;2023-09-19T07:27:30;100794.41;;;20.91;37.38
69737;BME280;64476;55.004;73.342;2023-09-19T07:30:32;100791.81;;;21.02;37.65
69737;BME280;64476;55.004;73.342;2023-09-19T07:33:33;100787.16;;;21.16;35.47
69737;BME280;64476;55.004;73.342;2023-09-19T07:36:35;100791.81;;;21.21;34.73
69737;BME280;64476;55.004;73.342;2023-09-19T07:39:38;100786.84;;;21.24;37.24
69737;BME280;64476;55.004;73.342;2023-09-19T07:42:41;100782.00;;;21.33;36.25
69737;BME280;64476;55.004;73.342;2023-09-19T07:45:45;100775.53;;;21.41;34.54
69737;BME280;64476;55.004;73.342;2023-09-19T07:48:49;100766.97;;;21.50;35.78
69737;BME280;64476;55.004;73.342;2023-09-19T07:51:51;100767.47;;;21.59;34.03
69737;BME280;64476;55.004;73.342;2023-09-19T07:54:58;100765.00;;;21.58;34.75
69737;BME280;64476;55.004;73.342;2023-09-19T07:58:13;100755.13;;;21.58;35.13
69737;BME280;64476;55.004;73.342;2023-09-19T08:01:24;100763.06;;;21.65;34.31
69737;BME280;64476;55.004;73.342;2023-09-19T08:04:28;100753.41;;;21.64;33.35
69737;BME280;64476;55.004;73.342;2023-09-19T08:07:37;100746.91;;;21.71;33.98
69737;BME280;64476;55.004;73.342;2023-09-19T08:10:39;100741.78;;;21.70;35.25
69737;BME280;64476;55.004;73.342;2023-09-19T08:13:46;100738.63;;;21.61;35.48
69737;BME280;64476;55.004;73.342;2023-09-19T08:16:50;100739.78;;;21.65;35.26
69737;BME280;64476;55.004;73.342;2023-09-19T08:19:58;100733.09;;;21.74;34.57
69737;BME280;64476;55.004;73.342;2023-09-19T08:23:01;100735.75;;;21.74;32.17
69737;BME280;64476;55.004;73.342;2023-09-19T08:26:02;100724.00;;;21.75;34.24
69737;BME280;64476;55.004;73.342;2023-09-19T08:32:58;100693.78;;;21.63;33.41
69737;BME280;64476;55.004;73.342;2023-09-19T08:40:17;100713.84;;;21.96;33.15
69737;BME280;64476;55.004;73.342;2023-09-19T08:43:20;100710.31;;;21.95;33.80
69737;BME280;64476;55.004;73.342;2023-09-19T08:46:23;100711.84;;;22.03;33.74
69737;BME280;64476;55.004;73.342;2023-09-19T08:53:10;100713.69;;;22.02;33.61
69737;BME280;64476;55.004;73.342;2023-09-19T08:56:22;100709.75;;;22.05;33.23
69737;BME280;64476;55.004;73.342;2023-09-19T08:59:25;100708.34;;;22.02;33.41
69737;BME280;64476;55.004;73.342;2023-09-19T09:02:31;100703.59;;;22.05;33.45
69737;BME280;64476;55.004;73.342;2023-09-19T09:05:38;100707.69;;;22.07;33.41
69737;BME280;64476;55.004;73.342;2023-09-19T09:09:22;100704.16;;;21.83;32.32
69737;BME280;64476;55.004;73.342;2023-09-19T09:12:27;100707.94;;;21.52;33.75
69737;BME280;64476;55.004;73.342;2023-09-19T09:15:35;100703.88;;;21.19;33.95
69737;BME280;64476;55.004;73.342;2023-09-19T09:18:38;100701.88;;;20.96;34.64
69737;BME280;64476;55.004;73.342;2023-09-19T09:21:42;100699.22;;;20.78;34.24
69737;BME280;64476;55.004;73.342;2023-09-19T09:24:53;100696.72;;;20.83;34.44
69737;BME280;64476;55.004;73.342;2023-09-19T09:28:09;100684.78;;;20.86;34.03
69737;BME280;64476;55.004;73.342;2023-09-19T09:31:23;100679.88;;;20.82;34.64
69737;BME280;64476;55.004;73.342;2023-09-19T09:34:36;100676.94;;;20.72;34.70
69737;BME280;64476;55.004;73.342;2023-09-19T09:37:43;100664.53;;;20.59;35.40
69737;BME280;64476;55.004;73.342;2023-09-19T09:40:50;100670.63;;;20.48;35.44
69737;BME280;64476;55.004;73.342;2023-09-19T09:44:15;100666.53;;;20.27;35.46
69737;BME280;64476;55.004;73.342;2023-09-19T09:47:40;100672.38;;;20.18;35.81
69737;BME280;64476;55.004;73.342;2023-09-19T09:54:59;100665.53;;;20.03;36.49
69737;BME280;64476;55.004;73.342;2023-09-19T09:58:18;100657.16;;;20.00;36.14
69737;BME280;64476;55.004;73.342;2023-09-19T10:01:20;100647.69;;;20.04;36.06
69737;BME280;64476;55.004;73.342;2023-09-19T10:04:27;100650.16;;;20.05;35.94
69737;BME280;64476;55.004;73.342;2023-09-19T10:07:38;100643.38;;;20.03;36.00
69737;BME280;64476;55.004;73.342;2023-09-19T10:10:42;100646.06;;;20.03;35.11
69737;BME280;64476;55.004;73.342;2023-09-19T10:13:44;100645.75;;;20.11;35.01
69737;BME280;64476;55.004;73.342;2023-09-19T10:16:48;100644.75;;;20.30;34.58
69737;BME280;64476;55.004;73.342;2023-09-19T10:19:58;100642.47;;;20.52;34.82
69737;BME280;64476;55.004;73.342;2023-09-19T10:23:06;100638.88;;;20.77;34.44
69737;BME280;64476;55.004;73.342;2023-09-19T10:26:15;100639.88;;;20.94;34.23
69737;BME280;64476;55.004;73.342;2023-09-19T10:29:18;100643.03;;;21.03;34.41
69737;BME280;64476;55.004;73.342;2023-09-19T10:32:21;100630.03;;;21.06;33.69
69737;BME280;64476;55.004;73.342;2023-09-19T10:35:24;100630.94;;;21.19;32.69
69737;BME280;64476;55.004;73.342;2023-09-19T10:38:27;100634.78;;;21.35;32.21
69737;BME280;64476;55.004;73.342;2023-09-19T10:41:29;100637.94;;;21.43;32.51
69737;BME280;64476;55.004;73.342;2023-09-19T10:44:32;100633.63;;;21.42;32.68
69737;BME280;64476;55.004;73.342;2023-09-19T10:47:39;100623.56;;;21.14;33.20
69737;BME280;64476;55.004;73.342;2023-09-19T10:54:18;100627.44;;;20.40;34.19
69737;BME280;64476;55.004;73.342;2023-09-19T10:57:25;100638.00;;;20.09;34.47
69737;BME280;64476;55.004;73.342;2023-09-19T11:00:29;100639.66;;;19.85;35.06
69737;BME280;64476;55.004;73.342;2023-09-19T11:03:43;100624.47;;;19.68;35.40
69737;BME280;64476;55.004;73.342;2023-09-19T11:07:09;100629.88;;;19.54;35.65
69737;BME280;64476;55.004;73.342;2023-09-19T11:10:50;100621.16;;;19.41;35.95
69737;BME280;64476;55.004;73.342;2023-09-19T11:14:39;100619.19;;;19.29;36.14
69737;BME280;64476;55.004;73.342;2023-09-19T11:17:45;100621.31;;;19.21;36.56
69737;BME280;64476;55.004;73.342;2023-09-19T11:24:27;100619.03;;;18.86;37.92
69737;BME280;64476;55.004;73.342;2023-09-19T11:31:40;100627.16;;;18.53;38.96
69737;BME280;64476;55.004;73.342;2023-09-19T11:40:44;100625.22;;;18.28;39.62
69737;BME280;64476;55.004;73.342;2023-09-19T11:43:48;100620.94;;;18.21;39.79
69737;BME280;64476;55.004;73.342;2023-09-19T11:47:19;100617.66;;;18.12;39.80
69737;BME280;64476;55.004;73.342;2023-09-19T11:50:23;100608.69;;;18.00;40.29
69737;BME280;64476;55.004;73.342;2023-09-19T11:53:30;100607.47;;;17.89;40.70
69737;BME280;64476;55.004;73.342;2023-09-19T11:56:38;100611.16;;;17.81;40.35
69737;BME280;64476;55.004;73.342;2023-09-19T11:59:44;100608.72;;;17.73;40.38
69737;BME280;64476;55.004;73.342;2023-09-19T12:02:47;100622.03;;;17.66;40.50
69737;BME280;64476;55.004;73.342;2023-09-19T12:05:52;100614.44;;;17.63;40.77
69737;BME280;64476;55.004;73.342;2023-09-19T12:08:53;100621.59;;;17.63;40.67
69737;BME280;64476;55.004;73.342;2023-09-19T12:11:56;100625.28;;;17.62;40.83
69737;BME280;64476;55.004;73.342;2023-09-19T12:14:58;100630.78;;;17.60;41.02
69737;BME280;64476;55.004;73.342;2023-09-19T12:18:00;100636.91;;;17.61;41.17
69737;BME280;64476;55.004;73.342;2023-09-19T12:21:02;100638.78;;;17.60;41.43
69737;BME280;64476;55.004;73.342;2023-09-19T12:31:32;100644.91;;;17.61;41.38
69737;BME280;64476;55.004;73.342;2023-09-19T12:34:38;100642.25;;;17.61;41.37
69737;BME280;64476;55.004;73.342;2023-09-19T12:37:45;100643.47;;;17.58;41.87
69737;BME280;64476;55.004;73.342;2023-09-19T12:40:56;100640.59;;;17.53;41.62
69737;BME280;64476;55.004;73.342;2023-09-19T12:43:57;100635.91;;;17.49;41.98
69737;BME280;64476;55.004;73.342;2023-09-19T12:47:08;100641.22;;;17.42;42.06
69737;BME280;64476;55.004;73.342;2023-09-19T12:50:14;100638.34;;;17.37;42.21
69737;BME280;64476;55.004;73.342;2023-09-19T12:53:27;100638.31;;;17.30;42.47
69737;BME280;64476;55.004;73.342;2023-09-19T12:56:40;100630.34;;;17.23;42.51
69737;BME280;64476;55.004;73.342;2023-09-19T12:59:58;100637.47;;;17.16;42.66
69737;BME280;64476;55.004;73.342;2023-09-19T13:03:09;100637.88;;;17.07;42.70
69737;BME280;64476;55.004;73.342;2023-09-19T13:06:12;100637.44;;;16.96;42.85
69737;BME280;64476;55.004;73.342;2023-09-19T13:09:25;100640.03;;;16.83;43.26
69737;BME280;64476;55.004;73.342;2023-09-19T13:12:35;100636.13;;;16.66;43.38
69737;BME280;64476;55.004;73.342;2023-09-19T13:15:51;100640.34;;;16.54;43.72
69737;BME280;64476;55.004;73.342;2023-09-19T13:18:53;100647.38;;;16.40;44.23
69737;BME280;64476;55.004;73.342;2023-09-19T13:21:57;100648.75;;;16.29;44.36
69737;BME280;64476;55.004;73.342;2023-09-19T13:28:34;100647.22;;;16.13;44.31
69737;BME280;64476;55.004;73.342;2023-09-19T13:31:35;100657.59;;;16.08;44.58
69737;BME280;64476;55.004;73.342;2023-09-19T13:34:39;100662.84;;;16.01;44.73
69737;BME280;64476;55.004;73.342;2023-09-19T13:37:40;100654.03;;;15.94;45.07
69737;BME280;64476;55.004;73.342;2023-09-19T13:40:46;100665.38;;;15.88;45.65
69737;BME280;64476;55.004;73.342;2023-09-19T13:43:48;100671.84;;;15.79;46.10
69737;BME280;64476;55.004;73.342;2023-09-19T13:46:52;100667.69;;;15.70;46.60
69737;BME280;64476;55.004;73.342;2023-09-19T13:49:56;100670.44;;;15.62;46.78
69737;BME280;64476;55.004;73.342;2023-09-19T13:53:06;100676.09;;;15.52;47.02
69737;BME280;64476;55.004;73.342;2023-09-19T13:56:07;100671.09;;;15.42;47.29
69737;BME280;64476;55.004;73.342;2023-09-19T13:59:09;100672.25;;;15.33;47.50
69737;BME280;64476;55.004;73.342;2023-09-19T14:02:16;100674.63;;;15.28;47.32
69737;BME280;64476;55.004;73.342;2023-09-19T14:05:32;100670.91;;;15.22;47.46
69737;BME280;64476;55.004;73.342;2023-09-19T14:08:38;100667.97;;;15.17;48.49
69737;BME280;64476;55.004;73.342;2023-09-19T14:11:39;100668.31;;;15.08;48.22
69737;BME280;64476;55.004;73.342;2023-09-19T14:14:43;100666.56;;;15.00;48.42
69737;BME280;64476;55.004;73.342;2023-09-19T14:17:46;100674.63;;;14.92;49.22
69737;BME280;64476;55.004;73.342;2023-09-19T14:20:47;100664.34;;;14.82;49.59
69737;BME280;64476;55.004;73.342;2023-09-19T14:23:49;100663.44;;;14.75;49.48
69737;BME280;64476;55.004;73.342;2023-09-19T14:26:50;100670.63;;;14.66;49.52
69737;BME280;64476;55.004;73.342;2023-09-19T14:29:58;100666.25;;;14.58;49.83
69737;BME280;64476;55.004;73.342;2023-09-19T14:33:00;100666.34;;;14.50;49.82
69737;BME280;64476;55.004;73.342;2023-09-19T14:36:02;100667.91;;;14.45;49.97
69737;BME280;64476;55.004;73.342;2023-09-19T14:39:04;100662.53;;;14.38;50.14
69737;BME280;64476;55.004;73.342;2023-09-19T14:42:06;100671.84;;;14.34;50.26
69737;BME280;64476;55.004;73.342;2023-09-19T14:45:07;100666.44;;;14.27;50.38
69737;BME280;64476;55.004;73.342;2023-09-19T14:51:43;100663.91;;;14.19;50.30
69737;BME280;64476;55.004;73.342;2023-09-19T14:54:45;100665.44;;;14.14;50.41
69737;BME280;64476;55.004;73.342;2023-09-19T14:57:48;100666.06;;;14.16;50.51
69737;BME280;64476;55.004;73.342;2023-09-19T15:00:54;100662.44;;;14.17;50.26
69737;BME280;64476;55.004;73.342;2023-09-19T15:04:01;100657.31;;;14.15;50.21
69737;BME280;64476;55.004;73.342;2023-09-19T15:07:04;100661.78;;;14.15;50.16
69737;BME280;64476;55.004;73.342;2023-09-19T15:10:11;100664.81;;;14.12;50.29
69737;BME280;64476;55.004;73.342;2023-09-19T15:13:24;100661.50;;;14.09;50.52
69737;BME280;64476;55.004;73.342;2023-09-19T15:16:35;100652.31;;;14.05;50.57
69737;BME280;64476;55.004;73.342;2023-09-19T15:19:36;100654.28;;;14.03;50.44
69737;BME280;64476;55.004;73.342;2023-09-19T15:22:50;100655.66;;;13.99;50.51
69737;BME280;64476;55.004;73.342;2023-09-19T15:25:57;100655.19;;;13.96;50.99
69737;BME280;64476;55.004;73.342;2023-09-19T15:28:58;100659.03;;;13.93;50.89
69737;BME280;64476;55.004;73.342;2023-09-19T15:32:10;100658.19;;;13.93;50.71
69737;BME280;64476;55.004;73.342;2023-09-19T15:35:19;100655.38;;;13.94;50.88
69737;BME280;64476;55.004;73.342;2023-09-19T15:38:55;100646.44;;;13.95;50.95
69737;BME280;64476;55.004;73.342;2023-09-19T15:42:25;100652.56;;;13.96;51.45
69737;BME280;64476;55.004;73.342;2023-09-19T15:45:31;100651.38;;;13.98;51.13
69737;BME280;64476;55.004;73.342;2023-09-19T15:48:34;100641.63;;;13.99;51.40
69737;BME280;64476;55.004;73.342;2023-09-19T15:51:44;100645.09;;;13.99;51.35
69737;BME280;64476;55.004;73.342;2023-09-19T15:55:25;100654.84;;;13.99;51.47
69737;BME280;64476;55.004;73.342;2023-09-19T15:58:31;100647.72;;;13.99;51.73
69737;BME280;64476;55.004;73.342;2023-09-19T16:01:38;100650.56;;;13.98;51.85
69737;BME280;64476;55.004;73.342;2023-09-19T16:04:41;100644.63;;;13.96;51.21
69737;BME280;64476;55.004;73.342;2023-09-19T16:07:56;100638.16;;;13.98;51.26
69737;BME280;64476;55.004;73.342;2023-09-19T16:11:10;100640.47;;;14.01;51.83
69737;BME280;64476;55.004;73.342;2023-09-19T16:14:32;100641.38;;;14.08;51.53
69737;BME280;64476;55.004;73.342;2023-09-19T16:18:13;100644.47;;;14.12;51.42
69737;BME280;64476;55.004;73.342;2023-09-19T16:21:34;100632.91;;;14.13;52.11
69737;BME280;64476;55.004;73.342;2023-09-19T16:24:38;100644.09;;;14.15;51.62
69737;BME280;64476;55.004;73.342;2023-09-19T16:27:39;100630.06;;;14.15;51.78
69737;BME280;64476;55.004;73.342;2023-09-19T16:30:40;100635.34;;;14.15;51.89
69737;BME280;64476;55.004;73.342;2023-09-19T16:33:43;100628.44;;;14.14;52.07
69737;BME280;64476;55.004;73.342;2023-09-19T16:36:45;100626.34;;;14.09;51.66
69737;BME280;64476;55.004;73.342;2023-09-19T16:39:47;100624.88;;;14.06;51.92
69737;BME280;64476;55.004;73.342;2023-09-19T16:42:48;100628.34;;;14.07;51.86
69737;BME280;64476;55.004;73.342;2023-09-19T16:45:57;100624.25;;;14.04;52.44
69737;BME280;64476;55.004;73.342;2023-09-19T16:49:04;100623.59;;;14.02;53.03
69737;BME280;64476;55.004;73.342;2023-09-19T16:52:06;100625.78;;;13.99;53.17
69737;BME280;64476;55.004;73.342;2023-09-19T16:55:13;100622.69;;;13.95;53.67
69737;BME280;64476;55.004;73.342;2023-09-19T16:58:31;100617.28;;;13.89;53.70
69737;BME280;64476;55.004;73.342;2023-09-19T17:01:34;100627.59;;;13.83;53.75
69737;BME280;64476;55.004;73.342;2023-09-19T17:04:38;100622.84;;;13.79;53.99
69737;BME280;64476;55.004;73.342;2023-09-19T17:07:40;100620.69;;;13.74;54.11
69737;BME280;64476;55.004;73.342;2023-09-19T17:10:41;100622.06;;;13.70;53.93
69737;BME280;64476;55.004;73.342;2023-09-19T17:13:45;100609.75;;;13.62;54.08
69737;BME280;64476;55.004;73.342;2023-09-19T17:16:49;100608.00;;;13.55;54.37
69737;BME280;64476;55.004;73.342;2023-09-19T17:19:58;100605.91;;;13.50;54.23
69737;BME280;64476;55.004;73.342;2023-09-19T17:23:33;100610.25;;;13.43;54.70
69737;BME280;64476;55.004;73.342;2023-09-19T17:26:35;100613.25;;;13.40;54.56